Terminal Aerodrome Forecast
Issued by NWS

Home | Current Version | Previous Version | Text Only | Print | Product List | Glossary On
Versions: 1 2 3 4 5 6 7 8 9 10 11 12 13 14 15 16 17 18 19 20 21
222
FTUS43 KIWX 240540
TAFSBN
TAF
KSBN 240540Z 2406/2506 32007KT P6SM VCSH OVC020
     FM240900 31006KT P6SM -SHSN OVC015
     FM242100 30007KT P6SM OVC025
     FM250200 VRB03KT P6SM BKN035=

USA.gov is the U.S. government's official web portal to all federal, state and local government web resources and services.